Time;durP1;ratioP1;P1;durP2;ratioP2;P2;SDS_P1;SDS_P2;PMS_P1;PMS_P2;Temp;Humidity;BMP_temperature;BMP_pressure;BME280_temperature;BME280_humidity;BME280_pressure;Samples;Min_cycle;Max_cycle;Signal;HPM_P1;HPM_P2
2023/07/08 00:01:28;;;;;;;8.55;4.13;;;;;;;;;;5069044;28;20203;-60
2023/07/08 00:03:55;;;;;;;5.65;4.45;;;;;;;;;;5069055;28;20210;-60
2023/07/08 00:06:23;;;;;;;3.78;3.42;;;;;;;;;;5068553;28;20207;-60
2023/07/08 00:08:50;;;;;;;6.10;4.07;;;;;;;;;;5069010;28;20527;-60
2023/07/08 00:11:18;;;;;;;4.57;4.00;;;;;;;;;;5068983;28;20692;-60
2023/07/08 00:13:46;;;;;;;4.18;3.70;;;;;;;;;;5068640;28;20203;-60
2023/07/08 00:16:14;;;;;;;4.13;3.65;;;;;;;;;;5068735;28;20231;-60
2023/07/08 00:18:41;;;;;;;4.68;3.45;;;;;;;;;;5068786;28;20206;-60
2023/07/08 00:21:15;;;;;;;4.45;3.85;;;;;;;;;;5067644;28;20620;-60
2023/07/08 00:23:42;;;;;;;3.47;3.22;;;;;;;;;;5054345;28;20204;-60
2023/07/08 00:26:11;;;;;;;3.88;3.47;;;;;;;;;;5067886;28;20202;-60
2023/07/08 00:28:38;;;;;;;3.45;3.15;;;;;;;;;;5053376;28;20199;-62
2023/07/08 00:31:09;;;;;;;5.40;3.63;;;;;;;;;;5066979;28;20207;-61
2023/07/08 00:33:36;;;;;;;3.95;3.50;;;;;;;;;;5068002;28;20226;-61
2023/07/08 00:36:09;;;;;;;4.05;3.38;;;;;;;;;;5068283;28;20765;-60
2023/07/08 00:38:37;;;;;;;3.78;3.40;;;;;;;;;;5068303;28;20207;-61
2023/07/08 00:41:08;;;;;;;4.93;3.80;;;;;;;;;;5067659;28;20210;-60
2023/07/08 00:43:37;;;;;;;3.55;3.30;;;;;;;;;;5061405;28;20238;-61
2023/07/08 00:46:11;;;;;;;3.88;3.50;;;;;;;;;;5067731;28;20238;-60
2023/07/08 00:48:41;;;;;;;3.00;2.78;;;;;;;;;;5068451;28;20207;-60
2023/07/08 00:51:10;;;;;;;5.40;2.90;;;;;;;;;;5068184;28;20290;-60
2023/07/08 00:53:38;;;;;;;3.15;2.85;;;;;;;;;;5068294;28;20298;-60
2023/07/08 00:56:07;;;;;;;4.50;3.45;;;;;;;;;;5067806;28;20250;-60
2023/07/08 00:58:35;;;;;;;3.97;3.20;;;;;;;;;;5065978;28;20223;-61
2023/07/08 01:01:04;;;;;;;4.43;3.38;;;;;;;;;;5065847;28;20207;-60
2023/07/08 01:03:32;;;;;;;3.45;3.05;;;;;;;;;;5065608;28;20272;-60
2023/07/08 01:06:00;;;;;;;3.08;2.88;;;;;;;;;;5066153;28;20202;-60
2023/07/08 01:08:30;;;;;;;2.88;2.47;;;;;;;;;;5067264;28;20210;-60
2023/07/08 01:11:01;;;;;;;8.43;3.40;;;;;;;;;;5068041;28;20211;-60
2023/07/08 01:13:28;;;;;;;3.58;3.28;;;;;;;;;;5067753;28;20703;-61
2023/07/08 01:15:55;;;;;;;2.78;2.42;;;;;;;;;;5067825;28;20222;-60
2023/07/08 01:18:24;;;;;;;3.45;2.92;;;;;;;;;;5067699;28;20280;-61
2023/07/08 01:20:55;;;;;;;2.50;2.30;;;;;;;;;;5068056;28;20214;-60
2023/07/08 01:23:23;;;;;;;3.70;3.33;;;;;;;;;;5068021;28;20293;-60
2023/07/08 01:25:50;;;;;;;3.03;2.72;;;;;;;;;;5067241;28;20307;-60
2023/07/08 01:28:18;;;;;;;3.33;3.03;;;;;;;;;;5067317;28;20425;-60
2023/07/08 01:30:45;;;;;;;3.20;2.88;;;;;;;;;;5067056;28;20241;-60
2023/07/08 01:33:17;;;;;;;3.97;2.67;;;;;;;;;;5067359;28;20203;-60
2023/07/08 01:35:45;;;;;;;3.22;2.92;;;;;;;;;;5067066;28;20273;-60
2023/07/08 01:38:13;;;;;;;2.92;2.72;;;;;;;;;;5067453;28;20253;-60
2023/07/08 01:40:49;;;;;;;2.88;2.70;;;;;;;;;;5067195;28;20522;-60
2023/07/08 01:43:16;;;;;;;2.72;2.53;;;;;;;;;;5066924;28;20518;-60
2023/07/08 01:45:44;;;;;;;2.83;2.60;;;;;;;;;;5066972;28;20281;-60
2023/07/08 01:48:12;;;;;;;3.20;2.90;;;;;;;;;;5065733;28;20735;-59
2023/07/08 01:50:42;;;;;;;6.93;2.90;;;;;;;;;;5066600;28;20214;-60
2023/07/08 01:53:11;;;;;;;3.35;2.97;;;;;;;;;;5066190;28;20203;-60
2023/07/08 01:55:38;;;;;;;2.50;2.40;;;;;;;;;;5066258;28;20668;-59
2023/07/08 01:58:06;;;;;;;3.08;2.80;;;;;;;;;;5066130;28;20222;-60
2023/07/08 02:00:33;;;;;;;3.63;2.80;;;;;;;;;;5065841;28;20207;-59
2023/07/08 02:03:00;;;;;;;3.15;2.90;;;;;;;;;;5054128;28;20575;-59
2023/07/08 02:05:27;;;;;;;2.95;2.75;;;;;;;;;;5065973;28;20214;-61
2023/07/08 02:07:55;;;;;;;3.53;3.10;;;;;;;;;;5065378;28;20276;-60
2023/07/08 02:10:22;;;;;;;2.95;2.75;;;;;;;;;;5066407;28;20199;-60
2023/07/08 02:12:49;;;;;;;3.70;3.35;;;;;;;;;;5066321;28;20199;-60
2023/07/08 02:15:17;;;;;;;3.40;2.83;;;;;;;;;;5066283;28;20380;-60
2023/07/08 02:17:44;;;;;;;3.10;2.78;;;;;;;;;;5065950;28;20222;-60
2023/07/08 02:20:12;;;;;;;3.88;2.90;;;;;;;;;;5067299;28;20253;-60
2023/07/08 02:22:39;;;;;;;2.85;2.60;;;;;;;;;;5070321;28;20268;-60
2023/07/08 02:25:07;;;;;;;2.63;2.42;;;;;;;;;;5069738;28;20666;-60
2023/07/08 02:27:35;;;;;;;3.22;3.03;;;;;;;;;;5070057;28;20203;-59
2023/07/08 02:30:02;;;;;;;3.13;2.92;;;;;;;;;;5070094;28;20669;-60
2023/07/08 02:32:35;;;;;;;3.08;2.70;;;;;;;;;;5070124;28;20776;-60
2023/07/08 02:35:02;;;;;;;4.50;3.35;;;;;;;;;;5069588;28;20206;-59
2023/07/08 02:37:30;;;;;;;3.30;2.85;;;;;;;;;;5069571;28;20639;-60
2023/07/08 02:39:57;;;;;;;2.80;2.70;;;;;;;;;;5069019;28;20673;-59
2023/07/08 02:42:24;;;;;;;3.83;2.70;;;;;;;;;;5069977;28;20337;-60
2023/07/08 02:44:51;;;;;;;3.25;2.97;;;;;;;;;;5069836;28;20238;-59
2023/07/08 02:47:18;;;;;;;3.30;3.03;;;;;;;;;;5069409;28;20216;-60
2023/07/08 02:49:46;;;;;;;4.10;2.90;;;;;;;;;;5069747;28;20207;-60
2023/07/08 02:52:13;;;;;;;3.42;3.08;;;;;;;;;;5069030;28;20310;-60
2023/07/08 02:54:40;;;;;;;3.22;2.92;;;;;;;;;;5069556;28;20302;-60
2023/07/08 02:57:07;;;;;;;4.97;3.35;;;;;;;;;;5069224;28;20234;-60
2023/07/08 02:59:34;;;;;;;4.15;3.30;;;;;;;;;;5069688;28;20344;-60
2023/07/08 03:02:01;;;;;;;3.15;2.85;;;;;;;;;;5068715;28;20215;-63
2023/07/08 03:04:30;;;;;;;3.10;2.88;;;;;;;;;;5068700;28;20207;-63
2023/07/08 03:06:58;;;;;;;4.13;2.65;;;;;;;;;;5068079;28;20207;-64
2023/07/08 03:09:26;;;;;;;3.30;2.55;;;;;;;;;;5069594;28;20215;-63
2023/07/08 03:11:53;;;;;;;3.78;3.47;;;;;;;;;;5069254;28;20242;-63
2023/07/08 03:14:20;;;;;;;2.95;2.67;;;;;;;;;;5069977;28;20285;-63
2023/07/08 03:16:47;;;;;;;3.83;2.90;;;;;;;;;;5068975;28;20671;-63
2023/07/08 03:19:15;;;;;;;3.20;3.00;;;;;;;;;;5069537;28;20325;-63
2023/07/08 03:21:42;;;;;;;2.95;2.75;;;;;;;;;;5069715;28;20237;-63
2023/07/08 03:24:12;;;;;;;3.50;3.20;;;;;;;;;;5069784;28;20284;-63
2023/07/08 03:26:39;;;;;;;6.10;3.50;;;;;;;;;;5069682;28;20207;-63
2023/07/08 03:29:07;;;;;;;3.30;3.00;;;;;;;;;;5069195;28;20611;-64
2023/07/08 03:31:34;;;;;;;2.72;2.53;;;;;;;;;;5068625;28;20199;-63
2023/07/08 03:34:01;;;;;;;3.63;2.85;;;;;;;;;;5069413;28;20203;-63
2023/07/08 03:36:28;;;;;;;2.95;2.65;;;;;;;;;;5069018;28;20203;-62
2023/07/08 03:38:56;;;;;;;2.75;2.55;;;;;;;;;;5068768;28;20214;-63
2023/07/08 03:41:25;;;;;;;3.25;2.95;;;;;;;;;;5068976;28;20207;-63
2023/07/08 03:43:52;;;;;;;4.35;3.20;;;;;;;;;;5068880;28;20225;-63
2023/07/08 03:46:20;;;;;;;4.68;2.92;;;;;;;;;;5069577;28;20202;-63
2023/07/08 03:49:03;;;;;;;4.18;2.40;;;;;;;;;;5069363;28;20207;-63
2023/07/08 03:51:31;;;;;;;2.85;2.58;;;;;;;;;;5069300;28;20855;-63
2023/07/08 03:53:59;;;;;;;3.45;2.75;;;;;;;;;;5069243;28;20260;-63
2023/07/08 03:56:27;;;;;;;3.60;2.88;;;;;;;;;;5069140;28;20256;-63
2023/07/08 03:59:03;;;;;;;3.17;2.85;;;;;;;;;;5068838;28;20260;-63
2023/07/08 04:01:30;;;;;;;4.03;2.85;;;;;;;;;;5069521;28;20199;-63
2023/07/08 04:03:58;;;;;;;2.25;2.15;;;;;;;;;;5069037;28;20226;-64
2023/07/08 04:06:25;;;;;;;4.03;2.92;;;;;;;;;;5069276;28;20206;-64
2023/07/08 04:08:53;;;;;;;2.63;2.42;;;;;;;;;;5068416;28;20207;-64
2023/07/08 04:11:21;;;;;;;2.58;2.40;;;;;;;;;;5068533;28;20203;-64
2023/07/08 04:13:50;;;;;;;3.10;2.78;;;;;;;;;;5068844;28;20210;-64
2023/07/08 04:16:18;;;;;;;3.03;2.78;;;;;;;;;;5068671;28;20216;-65
2023/07/08 04:18:45;;;;;;;2.72;2.50;;;;;;;;;;5068669;28;20230;-64
2023/07/08 04:21:13;;;;;;;3.00;2.80;;;;;;;;;;5068890;28;20657;-64
2023/07/08 04:23:40;;;;;;;2.92;2.55;;;;;;;;;;5068916;28;20630;-64
2023/07/08 04:26:07;;;;;;;3.38;2.50;;;;;;;;;;5068613;28;20199;-63
2023/07/08 04:28:34;;;;;;;5.25;3.08;;;;;;;;;;5068424;28;20222;-68
2023/07/08 04:31:03;;;;;;;4.40;2.50;;;;;;;;;;5068548;28;20215;-64
2023/07/08 04:33:31;;;;;;;4.13;2.85;;;;;;;;;;5068496;28;20202;-64
2023/07/08 04:35:58;;;;;;;2.63;2.42;;;;;;;;;;5068277;28;20575;-64
2023/07/08 04:38:26;;;;;;;3.75;2.33;;;;;;;;;;5067119;28;20231;-64
2023/07/08 04:40:53;;;;;;;3.05;2.85;;;;;;;;;;5067880;28;20207;-64
2023/07/08 04:43:21;;;;;;;6.75;2.90;;;;;;;;;;5067378;28;20772;-64
2023/07/08 04:45:51;;;;;;;2.55;2.45;;;;;;;;;;5067972;28;20231;-64
2023/07/08 04:48:21;;;;;;;4.72;2.72;;;;;;;;;;5068203;28;20286;-64
2023/07/08 04:50:49;;;;;;;2.83;2.63;;;;;;;;;;5068111;28;20214;-63
2023/07/08 04:53:16;;;;;;;2.55;2.45;;;;;;;;;;5068294;28;20310;-63
2023/07/08 04:55:44;;;;;;;2.65;2.45;;;;;;;;;;5067229;28;20218;-63
2023/07/08 04:58:11;;;;;;;2.80;2.60;;;;;;;;;;5064391;28;20227;-64
2023/07/08 05:00:38;;;;;;;3.10;2.80;;;;;;;;;;5057115;28;20214;-63
2023/07/08 05:03:05;;;;;;;2.55;2.38;;;;;;;;;;5061759;28;20725;-63
2023/07/08 05:05:44;;;;;;;2.80;2.58;;;;;;;;;;5082982;27;20556;-62
2023/07/08 05:08:11;;;;;;;2.83;2.72;;;;;;;;;;5081958;28;20207;-62
2023/07/08 05:10:38;;;;;;;3.22;2.47;;;;;;;;;;5083983;28;20198;-62
2023/07/08 05:13:05;;;;;;;2.50;2.30;;;;;;;;;;5084258;28;20206;-62
2023/07/08 05:15:32;;;;;;;3.72;2.60;;;;;;;;;;5084130;28;20210;-62
2023/07/08 05:17:59;;;;;;;3.03;2.83;;;;;;;;;;5060176;28;20211;-62
2023/07/08 05:20:26;;;;;;;2.50;2.40;;;;;;;;;;5076434;28;20216;-62
2023/07/08 05:22:55;;;;;;;2.88;2.70;;;;;;;;;;5084369;28;20206;-62
2023/07/08 05:25:22;;;;;;;3.25;2.92;;;;;;;;;;5083621;28;20234;-65
2023/07/08 05:27:49;;;;;;;2.00;1.90;;;;;;;;;;5084305;28;20202;-62
2023/07/08 05:30:17;;;;;;;2.83;2.40;;;;;;;;;;5083500;28;20751;-62
2023/07/08 05:32:45;;;;;;;6.55;2.60;;;;;;;;;;5083454;28;20649;-62
2023/07/08 05:35:12;;;;;;;4.05;2.60;;;;;;;;;;5084034;28;20229;-62
2023/07/08 05:37:39;;;;;;;2.65;2.45;;;;;;;;;;5083670;28;20206;-65
2023/07/08 05:40:09;;;;;;;2.63;2.42;;;;;;;;;;5084019;28;20298;-71
2023/07/08 05:42:36;;;;;;;2.85;2.65;;;;;;;;;;5063810;28;20333;-58
2023/07/08 05:45:03;;;;;;;3.72;2.83;;;;;;;;;;5063620;28;20375;-57
2023/07/08 05:47:30;;;;;;;3.08;2.78;;;;;;;;;;5074947;28;20210;-57
2023/07/08 05:49:57;;;;;;;3.58;2.83;;;;;;;;;;5076439;28;20211;-58
2023/07/08 05:52:24;;;;;;;3.80;2.58;;;;;;;;;;5075667;28;20210;-58
2023/07/08 05:54:51;;;;;;;3.33;2.60;;;;;;;;;;5082025;28;20213;-57
2023/07/08 05:57:20;;;;;;;2.60;2.40;;;;;;;;;;5082680;28;20203;-57
2023/07/08 05:59:47;;;;;;;4.88;2.35;;;;;;;;;;5076877;28;20211;-58
2023/07/08 06:02:14;;;;;;;2.50;2.35;;;;;;;;;;5071860;28;20199;-58
2023/07/08 06:04:41;;;;;;;2.58;2.45;;;;;;;;;;5070468;28;20717;-58
2023/07/08 06:07:08;;;;;;;2.65;2.45;;;;;;;;;;5077183;28;20198;-58
2023/07/08 06:09:36;;;;;;;2.63;2.47;;;;;;;;;;5082273;28;20222;-58
2023/07/08 06:12:03;;;;;;;3.17;2.97;;;;;;;;;;5062573;28;20681;-59
2023/07/08 06:14:31;;;;;;;3.20;2.90;;;;;;;;;;5063060;28;20445;-58
2023/07/08 06:16:59;;;;;;;4.13;3.33;;;;;;;;;;5049952;28;20207;-58
2023/07/08 06:19:26;;;;;;;3.00;2.80;;;;;;;;;;5049433;28;20294;-58
2023/07/08 06:21:53;;;;;;;2.75;2.55;;;;;;;;;;5055004;28;20214;-58
2023/07/08 06:24:20;;;;;;;3.28;2.15;;;;;;;;;;5068500;28;20235;-58
2023/07/08 06:26:47;;;;;;;4.13;3.13;;;;;;;;;;5069395;28;20210;-58
2023/07/08 06:29:15;;;;;;;2.85;2.65;;;;;;;;;;5068604;28;20214;-58
2023/07/08 06:31:44;;;;;;;2.95;2.75;;;;;;;;;;5060340;28;20278;-58
2023/07/08 06:34:11;;;;;;;2.72;2.53;;;;;;;;;;5054072;28;20238;-58
2023/07/08 06:36:38;;;;;;;2.47;2.30;;;;;;;;;;5049011;28;20565;-59
2023/07/08 06:39:07;;;;;;;2.83;2.63;;;;;;;;;;5054345;28;20453;-58
2023/07/08 06:41:34;;;;;;;2.55;2.35;;;;;;;;;;5058461;28;20211;-58
2023/07/08 06:44:01;;;;;;;3.30;2.88;;;;;;;;;;5048899;28;20239;-58
2023/07/08 06:46:28;;;;;;;3.33;2.30;;;;;;;;;;5048870;28;20618;-58
2023/07/08 06:48:56;;;;;;;4.30;2.50;;;;;;;;;;5061000;28;20214;-58
2023/07/08 06:51:23;;;;;;;2.63;2.42;;;;;;;;;;5067459;28;20210;-58
2023/07/08 06:53:50;;;;;;;3.13;2.83;;;;;;;;;;5068544;28;20211;-58
2023/07/08 06:56:17;;;;;;;2.40;2.30;;;;;;;;;;5068428;28;20233;-58
2023/07/08 06:58:44;;;;;;;4.28;2.80;;;;;;;;;;5068567;28;20218;-58
2023/07/08 07:01:11;;;;;;;3.90;2.90;;;;;;;;;;5062883;28;20204;-57
2023/07/08 07:03:39;;;;;;;2.85;2.65;;;;;;;;;;5048219;28;20240;-58
2023/07/08 07:06:08;;;;;;;2.55;2.40;;;;;;;;;;5048488;28;20228;-58
2023/07/08 07:08:35;;;;;;;3.05;2.70;;;;;;;;;;5051907;28;20203;-58
2023/07/08 07:11:02;;;;;;;2.78;2.60;;;;;;;;;;5066465;28;20581;-58
2023/07/08 07:13:29;;;;;;;3.15;2.85;;;;;;;;;;5059737;28;20211;-58
2023/07/08 07:15:56;;;;;;;5.38;2.40;;;;;;;;;;5068036;28;20309;-58
2023/07/08 07:18:23;;;;;;;2.90;2.70;;;;;;;;;;5068466;28;20207;-59
2023/07/08 07:20:51;;;;;;;2.67;2.53;;;;;;;;;;5065277;28;20211;-58
2023/07/08 07:23:19;;;;;;;2.92;2.75;;;;;;;;;;5049026;28;20596;-58
2023/07/08 07:25:48;;;;;;;2.90;2.70;;;;;;;;;;5064215;28;20261;-59
2023/07/08 07:28:16;;;;;;;2.75;2.65;;;;;;;;;;5067310;28;20387;-59
2023/07/08 07:30:43;;;;;;;3.92;2.80;;;;;;;;;;5049442;28;20310;-58
2023/07/08 07:33:10;;;;;;;5.40;2.92;;;;;;;;;;5057331;28;20288;-58
2023/07/08 07:35:37;;;;;;;1.88;1.77;;;;;;;;;;5048427;28;20258;-63
2023/07/08 07:38:04;;;;;;;2.45;2.30;;;;;;;;;;5057754;28;20203;-63
2023/07/08 07:40:33;;;;;;;2.45;2.30;;;;;;;;;;5067961;28;20218;-63
2023/07/08 07:43:00;;;;;;;2.50;2.40;;;;;;;;;;5062233;28;20686;-63
2023/07/08 07:45:35;;;;;;;2.75;2.55;;;;;;;;;;5047923;28;20235;-63
2023/07/08 07:48:02;;;;;;;2.47;2.28;;;;;;;;;;5047785;28;20215;-63
2023/07/08 07:50:29;;;;;;;2.75;2.22;;;;;;;;;;5047573;28;20547;-63
2023/07/08 07:52:56;;;;;;;2.50;2.30;;;;;;;;;;5048784;28;20227;-62
2023/07/08 07:55:23;;;;;;;2.78;2.55;;;;;;;;;;5056184;28;20222;-62
2023/07/08 07:57:52;;;;;;;3.25;2.88;;;;;;;;;;5055622;28;20211;-62
2023/07/08 08:00:19;;;;;;;2.90;2.70;;;;;;;;;;5047248;28;20227;-62
2023/07/08 08:02:46;;;;;;;2.60;2.40;;;;;;;;;;5062347;28;20273;-62
2023/07/08 08:05:13;;;;;;;5.43;2.88;;;;;;;;;;5050036;28;20228;-62
2023/07/08 08:07:41;;;;;;;3.65;2.75;;;;;;;;;;5047969;28;20216;-62
2023/07/08 08:10:08;;;;;;;2.50;2.33;;;;;;;;;;5065967;28;20305;-62
2023/07/08 08:12:35;;;;;;;2.53;2.33;;;;;;;;;;5067558;28;20276;-60
2023/07/08 08:15:04;;;;;;;2.83;2.63;;;;;;;;;;5065850;28;20215;-62
2023/07/08 08:17:31;;;;;;;3.03;2.83;;;;;;;;;;5050697;28;20213;-60
2023/07/08 08:19:58;;;;;;;3.38;2.78;;;;;;;;;;5046874;28;20219;-60
2023/07/08 08:22:25;;;;;;;2.53;2.33;;;;;;;;;;5046630;28;20607;-60
2023/07/08 08:24:52;;;;;;;2.58;2.47;;;;;;;;;;5046423;28;20242;-61
2023/07/08 08:27:19;;;;;;;2.90;2.75;;;;;;;;;;5049832;28;20203;-58
2023/07/08 08:29:46;;;;;;;2.90;2.70;;;;;;;;;;5061759;28;20211;-62
2023/07/08 08:32:15;;;;;;;4.53;2.67;;;;;;;;;;5052701;28;20226;-62
2023/07/08 08:34:42;;;;;;;3.42;2.95;;;;;;;;;;5046549;28;20311;-58
2023/07/08 08:37:09;;;;;;;3.08;2.88;;;;;;;;;;5050580;28;20681;-59
2023/07/08 08:39:36;;;;;;;3.15;2.83;;;;;;;;;;5046143;28;20741;-58
2023/07/08 08:42:03;;;;;;;2.92;2.72;;;;;;;;;;5046401;28;20282;-58
2023/07/08 08:44:33;;;;;;;3.63;3.03;;;;;;;;;;5046693;28;20207;-58
2023/07/08 08:47:05;;;;;;;3.70;2.88;;;;;;;;;;5046912;28;20212;-58
2023/07/08 08:49:38;;;;;;;2.53;2.42;;;;;;;;;;5054085;28;20226;-58
2023/07/08 08:52:06;;;;;;;4.47;3.13;;;;;;;;;;5060591;28;20212;-58
2023/07/08 08:54:33;;;;;;;3.05;2.85;;;;;;;;;;5061006;28;20212;-58
2023/07/08 08:57:05;;;;;;;2.90;2.70;;;;;;;;;;5060780;28;20657;-58
2023/07/08 08:59:36;;;;;;;3.22;3.03;;;;;;;;;;5043108;28;20500;-59
2023/07/08 09:02:06;;;;;;;3.42;2.80;;;;;;;;;;5063109;28;20559;-59
2023/07/08 09:04:37;;;;;;;2.58;2.45;;;;;;;;;;5064104;28;20235;-60
2023/07/08 09:07:16;;;;;;;3.13;2.83;;;;;;;;;;5061463;28;20195;-58
2023/07/08 09:09:47;;;;;;;3.72;3.25;;;;;;;;;;5043624;28;20715;-60
2023/07/08 09:12:17;;;;;;;3.17;2.97;;;;;;;;;;5045622;28;20298;-56
2023/07/08 09:14:44;;;;;;;5.60;3.22;;;;;;;;;;5045522;28;20219;-59
2023/07/08 09:17:16;;;;;;;2.97;2.78;;;;;;;;;;5042275;28;20219;-58
2023/07/08 09:19:46;;;;;;;3.00;2.70;;;;;;;;;;5046294;28;20212;-58
2023/07/08 09:22:15;;;;;;;2.92;2.67;;;;;;;;;;5052907;28;20212;-58
2023/07/08 09:24:44;;;;;;;3.78;3.08;;;;;;;;;;5058885;28;20260;-59
2023/07/08 09:27:11;;;;;;;4.50;3.17;;;;;;;;;;5062131;28;20220;-59
2023/07/08 09:29:38;;;;;;;3.13;2.90;;;;;;;;;;5061483;28;20207;-63
2023/07/08 09:32:15;;;;;;;4.90;2.95;;;;;;;;;;5065915;28;20692;-61
2023/07/08 09:34:43;;;;;;;3.17;2.88;;;;;;;;;;5054929;28;20653;-59
2023/07/08 09:37:22;;;;;;;3.40;3.10;;;;;;;;;;5055515;28;20296;-60
2023/07/08 09:39:49;;;;;;;3.45;3.25;;;;;;;;;;5053596;28;20265;-60
2023/07/08 09:42:17;;;;;;;3.90;3.05;;;;;;;;;;5045986;28;20228;-60
2023/07/08 09:44:46;;;;;;;4.30;3.05;;;;;;;;;;5045804;28;20689;-60
2023/07/08 09:47:21;;;;;;;3.58;3.28;;;;;;;;;;5045287;28;20200;-60
2023/07/08 09:49:48;;;;;;;3.75;3.00;;;;;;;;;;5046066;28;20269;-59
2023/07/08 09:52:15;;;;;;;4.90;3.72;;;;;;;;;;5049413;28;20227;-59
2023/07/08 09:54:44;;;;;;;5.20;3.83;;;;;;;;;;5068695;28;20207;-59
2023/07/08 09:57:14;;;;;;;3.90;3.60;;;;;;;;;;5069375;28;20217;-60
2023/07/08 09:59:45;;;;;;;3.47;3.17;;;;;;;;;;5067269;28;20272;-59
2023/07/08 10:02:24;;;;;;;3.70;3.38;;;;;;;;;;5055158;28;20293;-60
2023/07/08 10:04:54;;;;;;;4.07;3.20;;;;;;;;;;5068755;28;20249;-59
2023/07/08 10:07:21;;;;;;;3.65;3.35;;;;;;;;;;5069393;28;20214;-60
2023/07/08 10:09:51;;;;;;;3.17;2.97;;;;;;;;;;5068598;28;20199;-59
2023/07/08 10:12:18;;;;;;;4.78;3.50;;;;;;;;;;5049781;28;20615;-59
2023/07/08 10:14:48;;;;;;;3.50;3.20;;;;;;;;;;5067563;28;20619;-60
2023/07/08 10:17:17;;;;;;;5.60;3.35;;;;;;;;;;5069581;28;20218;-60
2023/07/08 10:19:44;;;;;;;3.95;3.65;;;;;;;;;;5069283;28;20210;-60
2023/07/08 10:22:19;;;;;;;3.88;3.10;;;;;;;;;;5069545;28;20214;-60
2023/07/08 10:24:55;;;;;;;4.13;3.42;;;;;;;;;;5063679;28;20210;-61
2023/07/08 10:27:25;;;;;;;3.38;3.15;;;;;;;;;;5062346;28;20194;-59
2023/07/08 10:29:55;;;;;;;5.13;3.30;;;;;;;;;;5068416;28;20209;-60
2023/07/08 10:32:26;;;;;;;6.57;3.45;;;;;;;;;;5054783;28;20692;-60
2023/07/08 10:34:57;;;;;;;3.38;3.08;;;;;;;;;;5067883;28;20206;-60
2023/07/08 10:37:28;;;;;;;3.45;3.05;;;;;;;;;;5068165;28;20206;-60
2023/07/08 10:40:04;;;;;;;2.75;2.55;;;;;;;;;;5068665;28;20203;-60
2023/07/08 10:42:39;;;;;;;3.25;2.90;;;;;;;;;;5068872;28;20541;-60
2023/07/08 10:45:11;;;;;;;3.45;3.13;;;;;;;;;;5066567;28;20206;-60
2023/07/08 10:47:45;;;;;;;3.75;3.45;;;;;;;;;;5068943;28;20202;-60
2023/07/08 10:50:21;;;;;;;3.40;3.10;;;;;;;;;;5060646;28;20619;-60
2023/07/08 10:52:57;;;;;;;3.47;3.17;;;;;;;;;;5059846;28;20650;-59
2023/07/08 10:55:34;;;;;;;2.97;2.78;;;;;;;;;;5068564;28;20206;-60
2023/07/08 10:58:13;;;;;;;4.80;3.17;;;;;;;;;;5059699;28;20234;-60
2023/07/08 11:00:42;;;;;;;4.32;3.20;;;;;;;;;;5067919;28;20209;-60
2023/07/08 11:03:31;;;;;;;3.35;2.97;;;;;;;;;;5063076;28;20661;-60
2023/07/08 11:06:00;;;;;;;4.43;3.10;;;;;;;;;;5063700;28;20229;-59
2023/07/08 11:08:29;;;;;;;3.83;2.60;;;;;;;;;;5054067;28;20211;-60
2023/07/08 11:10:59;;;;;;;3.97;3.42;;;;;;;;;;5054477;28;20684;-60
2023/07/08 11:13:27;;;;;;;2.78;2.58;;;;;;;;;;5061629;28;20579;-60
2023/07/08 11:15:57;;;;;;;3.05;2.85;;;;;;;;;;5068367;28;20218;-60
2023/07/08 11:18:27;;;;;;;5.68;2.83;;;;;;;;;;5067979;28;20233;-61
2023/07/08 11:20:57;;;;;;;3.47;3.17;;;;;;;;;;5067871;28;20272;-60
2023/07/08 11:23:28;;;;;;;3.95;2.75;;;;;;;;;;5067769;28;20194;-61
2023/07/08 11:26:02;;;;;;;3.20;2.90;;;;;;;;;;5068028;28;20591;-60
2023/07/08 11:28:30;;;;;;;4.28;3.10;;;;;;;;;;5058283;28;20256;-60
2023/07/08 11:30:59;;;;;;;3.00;2.80;;;;;;;;;;5064876;28;20202;-61
2023/07/08 11:33:27;;;;;;;2.90;2.80;;;;;;;;;;5066255;28;20256;-60
2023/07/08 11:35:55;;;;;;;2.80;2.60;;;;;;;;;;5063558;28;20684;-60
2023/07/08 11:38:23;;;;;;;3.03;2.80;;;;;;;;;;5050733;28;20225;-60
2023/07/08 11:40:57;;;;;;;3.83;2.80;;;;;;;;;;5047859;28;20211;-60
2023/07/08 11:43:26;;;;;;;4.80;2.85;;;;;;;;;;5048151;28;20248;-60
2023/07/08 11:45:56;;;;;;;3.17;2.90;;;;;;;;;;5047298;28;20223;-60
2023/07/08 11:48:24;;;;;;;2.85;2.35;;;;;;;;;;5057911;28;20199;-60
2023/07/08 11:50:52;;;;;;;4.35;3.05;;;;;;;;;;5061047;28;20290;-65
2023/07/08 11:53:34;;;;;;;7.68;2.70;;;;;;;;;;5048485;28;20334;-60
2023/07/08 11:56:02;;;;;;;3.17;3.00;;;;;;;;;;5061007;28;20211;-64
2023/07/08 11:58:31;;;;;;;3.15;2.70;;;;;;;;;;5055961;28;20515;-61
2023/07/08 12:01:01;;;;;;;6.13;2.90;;;;;;;;;;5049469;28;20211;-60
2023/07/08 12:03:32;;;;;;;2.63;2.50;;;;;;;;;;5059810;28;20206;-61
2023/07/08 12:06:05;;;;;;;3.05;2.75;;;;;;;;;;5055107;28;20235;-61
2023/07/08 12:08:36;;;;;;;2.70;2.22;;;;;;;;;;5066840;28;20211;-61
2023/07/08 12:11:03;;;;;;;3.22;2.92;;;;;;;;;;5066311;28;20209;-62
2023/07/08 12:13:31;;;;;;;3.17;2.67;;;;;;;;;;5066117;28;20238;-59
2023/07/08 12:15:59;;;;;;;3.50;2.20;;;;;;;;;;5067212;28;20301;-66
2023/07/08 12:18:26;;;;;;;2.83;2.55;;;;;;;;;;5066125;28;20213;-60
2023/07/08 12:20:55;;;;;;;2.92;2.50;;;;;;;;;;5056015;28;20207;-60
2023/07/08 12:23:23;;;;;;;3.88;2.42;;;;;;;;;;5062215;28;20210;-61
2023/07/08 12:25:50;;;;;;;2.42;2.33;;;;;;;;;;5054605;28;20279;-61
2023/07/08 12:28:17;;;;;;;3.83;2.70;;;;;;;;;;5066550;28;20210;-61
2023/07/08 12:30:45;;;;;;;6.43;3.22;;;;;;;;;;5062798;28;20203;-62
2023/07/08 12:33:15;;;;;;;4.28;2.60;;;;;;;;;;5051356;28;20241;-63
2023/07/08 12:35:43;;;;;;;2.35;2.15;;;;;;;;;;5065083;28;20205;-61
2023/07/08 12:38:15;;;;;;;3.33;3.00;;;;;;;;;;5063603;28;20217;-59
2023/07/08 12:40:42;;;;;;;3.20;2.70;;;;;;;;;;5052623;28;20473;-68
2023/07/08 12:43:10;;;;;;;4.28;2.83;;;;;;;;;;5043385;28;20261;-65
2023/07/08 12:45:38;;;;;;;2.33;2.22;;;;;;;;;;5052457;28;20207;-65
2023/07/08 12:48:05;;;;;;;5.15;3.10;;;;;;;;;;5049178;28;20207;-65
2023/07/08 12:50:34;;;;;;;4.05;2.80;;;;;;;;;;5061318;28;20207;-62
2023/07/08 12:53:33;;;;;;;;;;;;;;;;;;;;;
2023/07/08 12:56:01;;;;;;;4.22;1.85;;;;;;;;;;5046423;28;20203;-63
2023/07/08 12:58:29;;;;;;;2.30;2.20;;;;;;;;;;5050554;28;20696;-63
2023/07/08 13:00:57;;;;;;;2.80;2.28;;;;;;;;;;5067005;28;20210;-58
2023/07/08 13:03:26;;;;;;;2.83;2.55;;;;;;;;;;5057798;28;20199;-58
2023/07/08 13:05:55;;;;;;;2.53;2.33;;;;;;;;;;5065377;28;20213;-58
2023/07/08 13:08:24;;;;;;;2.80;2.70;;;;;;;;;;5066885;28;20238;-59
2023/07/08 13:10:52;;;;;;;2.50;2.35;;;;;;;;;;5065775;28;20289;-59
2023/07/08 13:13:22;;;;;;;2.58;2.38;;;;;;;;;;5065004;28;20551;-60
2023/07/08 13:15:50;;;;;;;2.55;2.40;;;;;;;;;;5066297;28;20217;-59
2023/07/08 13:18:18;;;;;;;2.60;2.47;;;;;;;;;;5066689;28;20647;-58
2023/07/08 13:20:45;;;;;;;3.15;2.83;;;;;;;;;;5065714;28;20206;-59
2023/07/08 13:23:14;;;;;;;2.45;2.35;;;;;;;;;;5044316;28;20226;-59
2023/07/08 13:25:41;;;;;;;2.33;2.22;;;;;;;;;;5061666;28;20784;-59
2023/07/08 13:28:17;;;;;;;2.75;2.33;;;;;;;;;;5069744;28;20229;-59
2023/07/08 13:30:51;;;;;;;3.38;2.25;;;;;;;;;;5054224;28;20371;-59
2023/07/08 13:33:18;;;;;;;2.45;2.22;;;;;;;;;;5049404;28;20238;-59
2023/07/08 13:35:46;;;;;;;3.40;2.10;;;;;;;;;;5059913;28;20194;-58
2023/07/08 13:38:16;;;;;;;2.78;2.55;;;;;;;;;;5047073;28;20218;-58
2023/07/08 13:40:45;;;;;;;1.80;1.80;;;;;;;;;;5065506;28;20725;-58
2023/07/08 13:43:12;;;;;;;1.52;1.52;;;;;;;;;;5069484;28;20633;-58
2023/07/08 13:45:47;;;;;;;1.75;1.65;;;;;;;;;;5070143;28;20202;-59
2023/07/08 13:48:16;;;;;;;2.53;2.30;;;;;;;;;;5070079;28;20229;-58
2023/07/08 13:50:46;;;;;;;2.30;1.92;;;;;;;;;;5070036;28;20289;-59
2023/07/08 13:53:23;;;;;;;5.57;2.10;;;;;;;;;;5069282;28;20206;-59
2023/07/08 13:55:57;;;;;;;3.05;2.75;;;;;;;;;;5070053;28;20217;-59
2023/07/08 13:58:27;;;;;;;2.00;1.85;;;;;;;;;;5069795;28;20209;-59
2023/07/08 14:00:55;;;;;;;2.75;2.25;;;;;;;;;;5069216;28;20202;-59
2023/07/08 14:03:22;;;;;;;2.72;2.53;;;;;;;;;;5069795;28;20217;-59
2023/07/08 14:05:49;;;;;;;3.03;2.28;;;;;;;;;;5069345;28;20206;-59
2023/07/08 14:08:17;;;;;;;2.83;2.30;;;;;;;;;;5069760;28;20234;-59
2023/07/08 14:10:46;;;;;;;2.20;2.10;;;;;;;;;;5069675;28;20218;-59
2023/07/08 14:13:13;;;;;;;2.35;2.13;;;;;;;;;;5069403;28;20210;-59
2023/07/08 14:15:40;;;;;;;3.03;2.83;;;;;;;;;;5069641;28;20203;-59
2023/07/08 14:18:07;;;;;;;2.58;2.38;;;;;;;;;;5069720;28;20206;-59
2023/07/08 14:20:34;;;;;;;3.38;2.22;;;;;;;;;;5069542;28;20611;-59
2023/07/08 14:23:01;;;;;;;3.08;2.78;;;;;;;;;;5069648;28;20218;-59
2023/07/08 14:25:28;;;;;;;3.95;2.47;;;;;;;;;;5069273;28;20205;-59
2023/07/08 14:27:57;;;;;;;2.45;2.30;;;;;;;;;;5069102;28;20272;-59
2023/07/08 14:30:24;;;;;;;3.08;2.70;;;;;;;;;;5069250;28;20198;-60
2023/07/08 14:32:56;;;;;;;2.72;2.53;;;;;;;;;;5069591;28;20210;-61
2023/07/08 14:35:25;;;;;;;3.03;2.72;;;;;;;;;;5069517;28;20202;-60
2023/07/08 14:37:53;;;;;;;3.10;2.75;;;;;;;;;;5066662;28;20198;-60
2023/07/08 14:40:22;;;;;;;2.70;2.50;;;;;;;;;;5058035;28;20203;-60
2023/07/08 14:42:49;;;;;;;3.28;2.88;;;;;;;;;;5069122;28;20238;-60
2023/07/08 14:45:17;;;;;;;3.05;2.78;;;;;;;;;;5069047;28;20216;-59
2023/07/08 14:47:44;;;;;;;2.72;2.53;;;;;;;;;;5068319;28;20226;-59
2023/07/08 14:50:14;;;;;;;3.00;2.25;;;;;;;;;;5062445;28;20210;-60
2023/07/08 14:52:41;;;;;;;3.47;2.70;;;;;;;;;;5066685;28;20210;-60